sensor_id;sensor_type;location;lat;lon;timestamp;P1;durP1;ratioP1;P2;durP2;ratioP2
80138;SDS011;69467;59.842;17.604;2023-06-04T00:00:59;1.60;;;1.20;;
80138;SDS011;69467;59.842;17.604;2023-06-04T00:03:25;2.60;;;1.48;;
80138;SDS011;69467;59.842;17.604;2023-06-04T00:05:50;2.55;;;1.60;;
80138;SDS011;69467;59.842;17.604;2023-06-04T00:08:16;2.13;;;1.30;;
80138;SDS011;69467;59.842;17.604;2023-06-04T00:10:42;3.60;;;1.60;;
80138;SDS011;69467;59.842;17.604;2023-06-04T00:13:07;4.45;;;1.83;;
80138;SDS011;69467;59.842;17.604;2023-06-04T00:15:33;3.65;;;1.30;;
80138;SDS011;69467;59.842;17.604;2023-06-04T00:17:58;2.05;;;1.48;;
80138;SDS011;69467;59.842;17.604;2023-06-04T00:20:24;2.00;;;1.45;;
80138;SDS011;69467;59.842;17.604;2023-06-04T00:22:49;1.52;;;1.08;;
80138;SDS011;69467;59.842;17.604;2023-06-04T00:25:15;1.23;;;1.13;;
80138;SDS011;69467;59.842;17.604;2023-06-04T00:27:41;3.10;;;1.38;;
80138;SDS011;69467;59.842;17.604;2023-06-04T00:30:06;1.60;;;1.50;;
80138;SDS011;69467;59.842;17.604;2023-06-04T00:32:32;3.72;;;1.77;;
80138;SDS011;69467;59.842;17.604;2023-06-04T00:34:57;1.60;;;1.33;;
80138;SDS011;69467;59.842;17.604;2023-06-04T00:37:23;2.83;;;2.30;;
80138;SDS011;69467;59.842;17.604;2023-06-04T00:39:50;2.25;;;1.83;;
80138;SDS011;69467;59.842;17.604;2023-06-04T00:42:16;2.03;;;1.85;;
80138;SDS011;69467;59.842;17.604;2023-06-04T00:44:41;1.40;;;1.30;;
80138;SDS011;69467;59.842;17.604;2023-06-04T00:47:12;3.90;;;1.45;;
80138;SDS011;69467;59.842;17.604;2023-06-04T00:49:42;4.00;;;2.03;;
80138;SDS011;69467;59.842;17.604;2023-06-04T00:52:08;1.80;;;0.90;;
80138;SDS011;69467;59.842;17.604;2023-06-04T00:54:35;1.10;;;0.95;;
80138;SDS011;69467;59.842;17.604;2023-06-04T00:57:01;2.60;;;1.38;;
80138;SDS011;69467;59.842;17.604;2023-06-04T00:59:28;2.03;;;1.55;;
80138;SDS011;69467;59.842;17.604;2023-06-04T01:07:11;1.65;;;0.95;;
80138;SDS011;69467;59.842;17.604;2023-06-04T01:09:39;1.48;;;1.05;;
80138;SDS011;69467;59.842;17.604;2023-06-04T01:12:05;1.52;;;1.00;;
80138;SDS011;69467;59.842;17.604;2023-06-04T01:14:32;0.70;;;0.65;;
80138;SDS011;69467;59.842;17.604;2023-06-04T01:17:59;2.45;;;0.98;;
80138;SDS011;69467;59.842;17.604;2023-06-04T01:20:05;0.95;;;0.75;;
80138;SDS011;69467;59.842;17.604;2023-06-04T01:22:44;1.30;;;1.08;;
80138;SDS011;69467;59.842;17.604;2023-06-04T01:27:56;1.55;;;0.90;;
80138;SDS011;69467;59.842;17.604;2023-06-04T01:30:23;1.02;;;0.70;;
80138;SDS011;69467;59.842;17.604;2023-06-04T01:32:54;1.80;;;0.80;;
80138;SDS011;69467;59.842;17.604;2023-06-04T01:37:46;1.27;;;1.17;;
80138;SDS011;69467;59.842;17.604;2023-06-04T01:40:12;1.20;;;0.90;;
80138;SDS011;69467;59.842;17.604;2023-06-04T01:42:39;0.70;;;0.70;;
80138;SDS011;69467;59.842;17.604;2023-06-04T01:45:06;1.67;;;1.48;;
80138;SDS011;69467;59.842;17.604;2023-06-04T01:47:32;0.68;;;0.68;;
80138;SDS011;69467;59.842;17.604;2023-06-04T01:49:57;2.05;;;0.90;;
80138;SDS011;69467;59.842;17.604;2023-06-04T01:52:23;1.55;;;0.77;;
80138;SDS011;69467;59.842;17.604;2023-06-04T01:54:48;1.10;;;0.77;;
80138;SDS011;69467;59.842;17.604;2023-06-04T01:57:17;8.68;;;1.67;;
80138;SDS011;69467;59.842;17.604;2023-06-04T01:59:46;1.00;;;0.77;;
80138;SDS011;69467;59.842;17.604;2023-06-04T02:02:11;1.20;;;0.73;;
80138;SDS011;69467;59.842;17.604;2023-06-04T02:04:37;1.27;;;1.10;;
80138;SDS011;69467;59.842;17.604;2023-06-04T02:07:06;1.33;;;0.98;;
80138;SDS011;69467;59.842;17.604;2023-06-04T02:09:32;2.28;;;0.68;;
80138;SDS011;69467;59.842;17.604;2023-06-04T02:11:57;2.42;;;0.80;;
80138;SDS011;69467;59.842;17.604;2023-06-04T02:14:22;1.58;;;0.70;;
80138;SDS011;69467;59.842;17.604;2023-06-04T02:16:48;4.32;;;1.05;;
80138;SDS011;69467;59.842;17.604;2023-06-04T02:19:15;2.17;;;1.20;;
80138;SDS011;69467;59.842;17.604;2023-06-04T02:21:40;1.02;;;0.80;;
80138;SDS011;69467;59.842;17.604;2023-06-04T02:24:06;0.90;;;0.60;;
80138;SDS011;69467;59.842;17.604;2023-06-04T02:26:31;1.00;;;0.88;;
80138;SDS011;69467;59.842;17.604;2023-06-04T02:28:57;1.58;;;0.88;;
80138;SDS011;69467;59.842;17.604;2023-06-04T02:31:22;0.88;;;0.70;;
80138;SDS011;69467;59.842;17.604;2023-06-04T02:33:48;0.85;;;0.70;;
80138;SDS011;69467;59.842;17.604;2023-06-04T02:36:13;1.35;;;1.25;;
80138;SDS011;69467;59.842;17.604;2023-06-04T02:38:38;0.93;;;0.50;;
80138;SDS011;69467;59.842;17.604;2023-06-04T02:41:04;0.40;;;0.40;;
80138;SDS011;69467;59.842;17.604;2023-06-04T02:43:30;0.38;;;0.38;;
80138;SDS011;69467;59.842;17.604;2023-06-04T02:45:55;1.17;;;0.80;;
80138;SDS011;69467;59.842;17.604;2023-06-04T02:48:21;0.68;;;0.57;;
80138;SDS011;69467;59.842;17.604;2023-06-04T02:50:46;0.75;;;0.70;;
80138;SDS011;69467;59.842;17.604;2023-06-04T02:53:11;0.85;;;0.50;;
80138;SDS011;69467;59.842;17.604;2023-06-04T02:55:37;1.08;;;0.35;;
80138;SDS011;69467;59.842;17.604;2023-06-04T02:58:02;0.80;;;0.43;;
80138;SDS011;69467;59.842;17.604;2023-06-04T03:00:28;0.55;;;0.50;;
80138;SDS011;69467;59.842;17.604;2023-06-04T03:02:53;0.43;;;0.40;;
80138;SDS011;69467;59.842;17.604;2023-06-04T03:05:26;1.10;;;0.50;;
80138;SDS011;69467;59.842;17.604;2023-06-04T03:07:52;0.50;;;0.40;;
80138;SDS011;69467;59.842;17.604;2023-06-04T03:10:18;1.02;;;0.57;;
80138;SDS011;69467;59.842;17.604;2023-06-04T03:12:43;0.90;;;0.32;;
80138;SDS011;69467;59.842;17.604;2023-06-04T03:15:09;3.00;;;0.50;;
80138;SDS011;69467;59.842;17.604;2023-06-04T03:17:36;0.30;;;0.20;;
80138;SDS011;69467;59.842;17.604;2023-06-04T03:20:02;1.02;;;0.40;;
80138;SDS011;69467;59.842;17.604;2023-06-04T03:22:29;0.38;;;0.17;;
80138;SDS011;69467;59.842;17.604;2023-06-04T03:24:55;0.60;;;0.30;;
80138;SDS011;69467;59.842;17.604;2023-06-04T03:27:20;0.20;;;0.20;;
80138;SDS011;69467;59.842;17.604;2023-06-04T03:32:13;0.60;;;0.40;;
80138;SDS011;69467;59.842;17.604;2023-06-04T03:34:38;0.80;;;0.15;;
80138;SDS011;69467;59.842;17.604;2023-06-04T03:37:04;5.97;;;0.95;;
80138;SDS011;69467;59.842;17.604;2023-06-04T03:39:30;0.20;;;0.20;;
80138;SDS011;69467;59.842;17.604;2023-06-04T03:41:55;0.32;;;0.20;;
80138;SDS011;69467;59.842;17.604;2023-06-04T03:44:21;0.15;;;0.10;;
80138;SDS011;69467;59.842;17.604;2023-06-04T03:46:47;0.17;;;0.10;;
80138;SDS011;69467;59.842;17.604;2023-06-04T03:49:13;1.17;;;0.13;;
80138;SDS011;69467;59.842;17.604;2023-06-04T03:54:05;0.38;;;0.28;;
80138;SDS011;69467;59.842;17.604;2023-06-04T03:56:30;0.47;;;0.20;;
80138;SDS011;69467;59.842;17.604;2023-06-04T03:58:56;4.85;;;0.10;;
80138;SDS011;69467;59.842;17.604;2023-06-04T04:01:22;0.35;;;0.20;;
80138;SDS011;69467;59.842;17.604;2023-06-04T04:03:51;0.43;;;0.32;;
80138;SDS011;69467;59.842;17.604;2023-06-04T04:06:17;0.75;;;0.20;;
80138;SDS011;69467;59.842;17.604;2023-06-04T04:11:18;3.60;;;0.30;;
80138;SDS011;69467;59.842;17.604;2023-06-04T04:13:44;0.20;;;0.10;;
80138;SDS011;69467;59.842;17.604;2023-06-04T04:16:10;0.30;;;0.20;;
80138;SDS011;69467;59.842;17.604;2023-06-04T04:18:36;0.40;;;0.40;;
80138;SDS011;69467;59.842;17.604;2023-06-04T04:21:02;0.32;;;0.10;;
80138;SDS011;69467;59.842;17.604;2023-06-04T04:23:28;0.82;;;0.82;;
80138;SDS011;69467;59.842;17.604;2023-06-04T04:25:55;0.10;;;0.10;;
80138;SDS011;69467;59.842;17.604;2023-06-04T04:28:24;0.20;;;0.10;;
80138;SDS011;69467;59.842;17.604;2023-06-04T04:30:53;0.20;;;0.15;;
80138;SDS011;69467;59.842;17.604;2023-06-04T04:33:19;0.25;;;0.22;;
80138;SDS011;69467;59.842;17.604;2023-06-04T04:35:45;0.10;;;0.10;;
80138;SDS011;69467;59.842;17.604;2023-06-04T04:38:10;0.40;;;0.20;;
80138;SDS011;69467;59.842;17.604;2023-06-04T04:40:36;0.10;;;0.00;;
80138;SDS011;69467;59.842;17.604;2023-06-04T04:45:27;2.33;;;0.20;;
80138;SDS011;69467;59.842;17.604;2023-06-04T04:47:52;0.77;;;0.63;;
80138;SDS011;69467;59.842;17.604;2023-06-04T04:50:18;0.20;;;0.10;;
80138;SDS011;69467;59.842;17.604;2023-06-04T04:52:44;0.28;;;0.10;;
80138;SDS011;69467;59.842;17.604;2023-06-04T04:55:09;0.30;;;0.20;;
80138;SDS011;69467;59.842;17.604;2023-06-04T04:57:37;2.97;;;0.15;;
80138;SDS011;69467;59.842;17.604;2023-06-04T05:00:03;0.30;;;0.20;;
80138;SDS011;69467;59.842;17.604;2023-06-04T05:02:36;0.70;;;0.20;;
80138;SDS011;69467;59.842;17.604;2023-06-04T05:05:03;0.50;;;0.40;;
80138;SDS011;69467;59.842;17.604;2023-06-04T05:07:29;0.50;;;0.10;;
80138;SDS011;69467;59.842;17.604;2023-06-04T05:09:55;0.10;;;0.10;;
80138;SDS011;69467;59.842;17.604;2023-06-04T05:12:20;0.00;;;0.00;;
80138;SDS011;69467;59.842;17.604;2023-06-04T05:14:46;0.28;;;0.10;;
80138;SDS011;69467;59.842;17.604;2023-06-04T05:17:11;0.40;;;0.10;;
80138;SDS011;69467;59.842;17.604;2023-06-04T05:22:03;0.60;;;0.10;;
80138;SDS011;69467;59.842;17.604;2023-06-04T05:24:29;0.40;;;0.10;;
80138;SDS011;69467;59.842;17.604;2023-06-04T05:26:56;0.10;;;0.10;;
80138;SDS011;69467;59.842;17.604;2023-06-04T05:29:22;0.35;;;0.10;;
80138;SDS011;69467;59.842;17.604;2023-06-04T05:31:48;0.13;;;0.13;;
80138;SDS011;69467;59.842;17.604;2023-06-04T05:34:13;0.35;;;0.10;;
80138;SDS011;69467;59.842;17.604;2023-06-04T05:36:41;2.30;;;0.10;;
80138;SDS011;69467;59.842;17.604;2023-06-04T05:41:34;0.25;;;0.10;;
80138;SDS011;69467;59.842;17.604;2023-06-04T05:44:00;0.10;;;0.00;;
80138;SDS011;69467;59.842;17.604;2023-06-04T05:46:26;0.10;;;0.10;;
80138;SDS011;69467;59.842;17.604;2023-06-04T05:48:52;2.40;;;0.30;;
80138;SDS011;69467;59.842;17.604;2023-06-04T05:51:18;0.70;;;0.40;;
80138;SDS011;69467;59.842;17.604;2023-06-04T05:53:44;0.57;;;0.00;;
80138;SDS011;69467;59.842;17.604;2023-06-04T05:56:09;0.90;;;0.10;;
80138;SDS011;69467;59.842;17.604;2023-06-04T05:58:35;1.95;;;0.17;;
80138;SDS011;69467;59.842;17.604;2023-06-04T06:01:01;1.70;;;0.10;;
80138;SDS011;69467;59.842;17.604;2023-06-04T06:03:26;0.10;;;0.00;;
80138;SDS011;69467;59.842;17.604;2023-06-04T06:05:52;1.88;;;0.20;;
80138;SDS011;69467;59.842;17.604;2023-06-04T06:08:19;0.03;;;0.03;;
80138;SDS011;69467;59.842;17.604;2023-06-04T06:13:11;0.43;;;0.10;;
80138;SDS011;69467;59.842;17.604;2023-06-04T06:15:36;0.60;;;0.20;;
80138;SDS011;69467;59.842;17.604;2023-06-04T06:18:02;0.30;;;0.00;;
80138;SDS011;69467;59.842;17.604;2023-06-04T06:20:27;0.40;;;0.20;;
80138;SDS011;69467;59.842;17.604;2023-06-04T06:22:54;0.52;;;0.10;;
80138;SDS011;69467;59.842;17.604;2023-06-04T06:25:19;0.38;;;0.10;;
80138;SDS011;69467;59.842;17.604;2023-06-04T06:27:45;0.17;;;0.05;;
80138;SDS011;69467;59.842;17.604;2023-06-04T06:30:11;0.52;;;0.20;;
80138;SDS011;69467;59.842;17.604;2023-06-04T06:32:37;0.47;;;0.10;;
80138;SDS011;69467;59.842;17.604;2023-06-04T06:35:03;0.05;;;0.00;;
80138;SDS011;69467;59.842;17.604;2023-06-04T06:39:54;1.30;;;0.50;;
80138;SDS011;69467;59.842;17.604;2023-06-04T06:42:20;0.32;;;0.10;;
80138;SDS011;69467;59.842;17.604;2023-06-04T06:44:45;7.95;;;0.77;;
80138;SDS011;69467;59.842;17.604;2023-06-04T06:47:11;1.02;;;0.43;;
80138;SDS011;69467;59.842;17.604;2023-06-04T06:49:39;0.90;;;0.68;;
80138;SDS011;69467;59.842;17.604;2023-06-04T06:54:31;1.40;;;0.10;;
80138;SDS011;69467;59.842;17.604;2023-06-04T06:56:56;0.45;;;0.10;;
80138;SDS011;69467;59.842;17.604;2023-06-04T06:59:22;0.90;;;0.20;;
80138;SDS011;69467;59.842;17.604;2023-06-04T07:01:48;0.22;;;0.10;;
80138;SDS011;69467;59.842;17.604;2023-06-04T07:04:13;0.30;;;0.10;;
80138;SDS011;69467;59.842;17.604;2023-06-04T07:06:38;0.30;;;0.15;;
80138;SDS011;69467;59.842;17.604;2023-06-04T07:09:04;4.40;;;0.20;;
80138;SDS011;69467;59.842;17.604;2023-06-04T07:11:33;0.20;;;0.10;;
80138;SDS011;69467;59.842;17.604;2023-06-04T07:13:59;0.20;;;0.10;;
80138;SDS011;69467;59.842;17.604;2023-06-04T07:16:25;0.28;;;0.10;;
80138;SDS011;69467;59.842;17.604;2023-06-04T07:18:51;0.55;;;0.10;;
80138;SDS011;69467;59.842;17.604;2023-06-04T07:21:16;0.20;;;0.00;;
80138;SDS011;69467;59.842;17.604;2023-06-04T07:23:44;0.38;;;0.20;;
80138;SDS011;69467;59.842;17.604;2023-06-04T07:26:12;0.63;;;0.20;;
80138;SDS011;69467;59.842;17.604;2023-06-04T07:28:37;0.10;;;0.10;;
80138;SDS011;69467;59.842;17.604;2023-06-04T07:31:03;0.88;;;0.20;;
80138;SDS011;69467;59.842;17.604;2023-06-04T07:33:28;0.45;;;0.35;;
80138;SDS011;69467;59.842;17.604;2023-06-04T07:35:54;0.00;;;0.00;;
80138;SDS011;69467;59.842;17.604;2023-06-04T07:38:19;0.20;;;0.10;;
80138;SDS011;69467;59.842;17.604;2023-06-04T07:40:45;0.10;;;0.10;;
80138;SDS011;69467;59.842;17.604;2023-06-04T07:43:12;3.30;;;0.40;;
80138;SDS011;69467;59.842;17.604;2023-06-04T07:45:38;0.20;;;0.10;;
80138;SDS011;69467;59.842;17.604;2023-06-04T07:48:03;0.20;;;0.10;;
80138;SDS011;69467;59.842;17.604;2023-06-04T07:50:29;0.45;;;0.10;;
80138;SDS011;69467;59.842;17.604;2023-06-04T07:52:54;10.80;;;1.25;;
80138;SDS011;69467;59.842;17.604;2023-06-04T07:55:20;2.72;;;0.40;;
80138;SDS011;69467;59.842;17.604;2023-06-04T07:57:45;2.03;;;0.52;;
80138;SDS011;69467;59.842;17.604;2023-06-04T08:00:11;0.43;;;0.43;;
80138;SDS011;69467;59.842;17.604;2023-06-04T08:02:37;2.45;;;0.30;;
80138;SDS011;69467;59.842;17.604;2023-06-04T08:05:02;3.00;;;0.57;;
80138;SDS011;69467;59.842;17.604;2023-06-04T08:07:29;0.13;;;0.10;;
80138;SDS011;69467;59.842;17.604;2023-06-04T08:09:54;2.42;;;0.17;;
80138;SDS011;69467;59.842;17.604;2023-06-04T08:12:21;5.22;;;0.20;;
80138;SDS011;69467;59.842;17.604;2023-06-04T08:14:47;0.25;;;0.10;;
80138;SDS011;69467;59.842;17.604;2023-06-04T08:17:12;0.25;;;0.25;;
80138;SDS011;69467;59.842;17.604;2023-06-04T08:19:38;1.55;;;0.13;;
80138;SDS011;69467;59.842;17.604;2023-06-04T08:22:03;0.30;;;0.20;;
80138;SDS011;69467;59.842;17.604;2023-06-04T08:24:29;0.85;;;0.20;;
80138;SDS011;69467;59.842;17.604;2023-06-04T08:26:54;0.10;;;0.10;;
80138;SDS011;69467;59.842;17.604;2023-06-04T08:29:19;0.25;;;0.15;;
80138;SDS011;69467;59.842;17.604;2023-06-04T08:31:45;2.40;;;0.20;;
80138;SDS011;69467;59.842;17.604;2023-06-04T08:34:10;0.10;;;0.08;;
80138;SDS011;69467;59.842;17.604;2023-06-04T08:36:36;0.20;;;0.05;;
80138;SDS011;69467;59.842;17.604;2023-06-04T08:39:01;0.10;;;0.10;;
80138;SDS011;69467;59.842;17.604;2023-06-04T08:44:18;0.80;;;0.13;;
80138;SDS011;69467;59.842;17.604;2023-06-04T08:46:44;3.00;;;0.40;;
80138;SDS011;69467;59.842;17.604;2023-06-04T08:49:12;0.28;;;0.10;;
80138;SDS011;69467;59.842;17.604;2023-06-04T08:54:05;2.38;;;0.10;;
80138;SDS011;69467;59.842;17.604;2023-06-04T08:56:31;0.40;;;0.20;;
80138;SDS011;69467;59.842;17.604;2023-06-04T08:59:01;0.10;;;0.10;;
80138;SDS011;69467;59.842;17.604;2023-06-04T09:01:28;0.45;;;0.10;;
80138;SDS011;69467;59.842;17.604;2023-06-04T09:03:56;0.20;;;0.15;;
80138;SDS011;69467;59.842;17.604;2023-06-04T09:06:26;0.13;;;0.10;;
80138;SDS011;69467;59.842;17.604;2023-06-04T09:08:52;0.80;;;0.45;;
80138;SDS011;69467;59.842;17.604;2023-06-04T09:11:21;2.00;;;0.30;;
80138;SDS011;69467;59.842;17.604;2023-06-04T09:13:48;0.52;;;0.05;;
80138;SDS011;69467;59.842;17.604;2023-06-04T09:16:15;0.55;;;0.47;;
80138;SDS011;69467;59.842;17.604;2023-06-04T09:18:41;3.45;;;0.30;;
80138;SDS011;69467;59.842;17.604;2023-06-04T09:21:07;1.77;;;0.60;;
80138;SDS011;69467;59.842;17.604;2023-06-04T09:26:08;0.27;;;0.20;;
80138;SDS011;69467;59.842;17.604;2023-06-04T09:28:35;0.17;;;0.17;;
80138;SDS011;69467;59.842;17.604;2023-06-04T09:31:07;0.25;;;0.10;;
80138;SDS011;69467;59.842;17.604;2023-06-04T09:33:41;0.20;;;0.13;;
80138;SDS011;69467;59.842;17.604;2023-06-04T09:36:09;0.13;;;0.10;;
80138;SDS011;69467;59.842;17.604;2023-06-04T09:38:35;0.57;;;0.10;;
80138;SDS011;69467;59.842;17.604;2023-06-04T09:41:01;0.10;;;0.10;;
80138;SDS011;69467;59.842;17.604;2023-06-04T09:43:30;4.40;;;0.55;;
80138;SDS011;69467;59.842;17.604;2023-06-04T09:46:07;3.53;;;0.40;;
80138;SDS011;69467;59.842;17.604;2023-06-04T09:48:37;1.27;;;0.10;;
80138;SDS011;69467;59.842;17.604;2023-06-04T09:51:09;0.13;;;0.10;;
80138;SDS011;69467;59.842;17.604;2023-06-04T09:53:53;1.25;;;1.15;;
80138;SDS011;69467;59.842;17.604;2023-06-04T09:56:19;0.95;;;0.77;;
80138;SDS011;69467;59.842;17.604;2023-06-04T10:01:11;2.15;;;0.32;;
80138;SDS011;69467;59.842;17.604;2023-06-04T10:06:04;0.20;;;0.10;;
80138;SDS011;69467;59.842;17.604;2023-06-04T10:08:31;0.68;;;0.20;;
80138;SDS011;69467;59.842;17.604;2023-06-04T10:11:00;0.65;;;0.35;;
80138;SDS011;69467;59.842;17.604;2023-06-04T10:13:28;0.73;;;0.32;;
80138;SDS011;69467;59.842;17.604;2023-06-04T10:15:57;0.15;;;0.10;;
80138;SDS011;69467;59.842;17.604;2023-06-04T10:18:27;0.77;;;0.10;;
80138;SDS011;69467;59.842;17.604;2023-06-04T10:20:54;1.63;;;0.32;;
80138;SDS011;69467;59.842;17.604;2023-06-04T10:23:21;0.90;;;0.60;;
80138;SDS011;69467;59.842;17.604;2023-06-04T10:25:51;0.68;;;0.55;;
80138;SDS011;69467;59.842;17.604;2023-06-04T10:28:19;0.40;;;0.30;;
80138;SDS011;69467;59.842;17.604;2023-06-04T10:30:45;1.27;;;0.28;;
80138;SDS011;69467;59.842;17.604;2023-06-04T10:33:12;0.50;;;0.20;;
80138;SDS011;69467;59.842;17.604;2023-06-04T10:35:38;0.28;;;0.10;;
80138;SDS011;69467;59.842;17.604;2023-06-04T10:40:38;0.52;;;0.20;;
80138;SDS011;69467;59.842;17.604;2023-06-04T10:45:33;0.50;;;0.17;;
80138;SDS011;69467;59.842;17.604;2023-06-04T10:48:03;0.63;;;0.20;;
80138;SDS011;69467;59.842;17.604;2023-06-04T10:50:31;0.52;;;0.20;;
80138;SDS011;69467;59.842;17.604;2023-06-04T10:52:57;0.20;;;0.10;;
80138;SDS011;69467;59.842;17.604;2023-06-04T11:00:22;2.50;;;0.30;;
80138;SDS011;69467;59.842;17.604;2023-06-04T11:02:53;4.63;;;0.55;;
80138;SDS011;69467;59.842;17.604;2023-06-04T11:05:22;0.20;;;0.10;;
80138;SDS011;69467;59.842;17.604;2023-06-04T11:07:58;1.27;;;0.20;;
80138;SDS011;69467;59.842;17.604;2023-06-04T11:12:57;0.45;;;0.10;;
80138;SDS011;69467;59.842;17.604;2023-06-04T11:17:48;1.40;;;0.43;;
80138;SDS011;69467;59.842;17.604;2023-06-04T11:20:18;0.50;;;0.20;;
80138;SDS011;69467;59.842;17.604;2023-06-04T11:22:51;0.70;;;0.35;;
80138;SDS011;69467;59.842;17.604;2023-06-04T11:25:17;3.78;;;0.52;;
80138;SDS011;69467;59.842;17.604;2023-06-04T11:30:08;0.57;;;0.22;;
80138;SDS011;69467;59.842;17.604;2023-06-04T11:35:03;0.88;;;0.30;;
80138;SDS011;69467;59.842;17.604;2023-06-04T11:37:32;0.20;;;0.20;;
80138;SDS011;69467;59.842;17.604;2023-06-04T11:39:58;0.20;;;0.10;;
80138;SDS011;69467;59.842;17.604;2023-06-04T11:42:26;0.13;;;0.10;;
80138;SDS011;69467;59.842;17.604;2023-06-04T11:44:56;0.30;;;0.20;;
80138;SDS011;69467;59.842;17.604;2023-06-04T11:47:21;0.98;;;0.20;;
80138;SDS011;69467;59.842;17.604;2023-06-04T11:49:48;0.65;;;0.30;;
80138;SDS011;69467;59.842;17.604;2023-06-04T11:52:18;1.30;;;0.20;;
80138;SDS011;69467;59.842;17.604;2023-06-04T11:54:45;4.32;;;0.52;;
80138;SDS011;69467;59.842;17.604;2023-06-04T11:59:36;1.92;;;0.20;;
80138;SDS011;69467;59.842;17.604;2023-06-04T12:04:29;1.08;;;0.45;;
80138;SDS011;69467;59.842;17.604;2023-06-04T12:09:27;0.60;;;0.20;;
80138;SDS011;69467;59.842;17.604;2023-06-04T12:12:01;1.60;;;0.45;;
80138;SDS011;69467;59.842;17.604;2023-06-04T12:14:28;0.98;;;0.30;;
80138;SDS011;69467;59.842;17.604;2023-06-04T12:17:14;4.30;;;0.70;;
80138;SDS011;69467;59.842;17.604;2023-06-04T12:19:50;0.40;;;0.30;;
80138;SDS011;69467;59.842;17.604;2023-06-04T12:22:16;2.47;;;0.38;;
80138;SDS011;69467;59.842;17.604;2023-06-04T12:24:46;2.72;;;0.20;;
80138;SDS011;69467;59.842;17.604;2023-06-04T12:27:18;0.90;;;0.20;;
80138;SDS011;69467;59.842;17.604;2023-06-04T12:29:59;1.58;;;0.20;;
80138;SDS011;69467;59.842;17.604;2023-06-04T12:32:26;0.40;;;0.10;;
80138;SDS011;69467;59.842;17.604;2023-06-04T12:34:52;1.80;;;0.20;;
80138;SDS011;69467;59.842;17.604;2023-06-04T12:39:43;0.25;;;0.20;;
80138;SDS011;69467;59.842;17.604;2023-06-04T12:44:38;0.20;;;0.10;;
80138;SDS011;69467;59.842;17.604;2023-06-04T12:47:04;2.55;;;0.20;;
80138;SDS011;69467;59.842;17.604;2023-06-04T12:49:30;0.65;;;0.30;;
